ICE113 CYQM-BIKF
Flight info
| Callsign | ICE113 |
|---|---|
| Flight time | N/A |
| Altitude | 35000 |
| Route | NEEKO 5550N 5940N 6330N RAKIS ELDIS |
| Aircraft | A21N/M-SDFGRWY/C |
Departure
| Time | 2026-04-25 14:18 |
|---|---|
| Airport | Greater Moncton Roméo LeBlanc International Airport (CYQM) |
Arrival
| Time | N/A |
|---|---|
| Airport | Keflavik International Airport (BIKF) |
| Time | Latitude | Longitude | Altitude | Speed | Heading |
|---|---|---|---|---|---|
| 2026-04-25 13:45 | 46.11623 | -64.68696 | 202 ft | 0 kts | 313° |
| 2026-04-25 14:06 | 46.11615 | -64.68684 | 202 ft | 2 kts | 313° |
| 2026-04-25 14:07 | 46.11605 | -64.68668 | 202 ft | 2 kts | 313° |
| 2026-04-25 14:07 | 46.11594 | -64.68652 | 202 ft | 2 kts | 313° |
| 2026-04-25 14:07 | 46.11585 | -64.68636 | 203 ft | 2 kts | 313° |
| 2026-04-25 14:07 | 46.11578 | -64.68626 | 203 ft | 2 kts | 313° |
| 2026-04-25 14:08 | 46.11573 | -64.68608 | 203 ft | 2 kts | 260° |
| 2026-04-25 14:08 | 46.11577 | -64.68593 | 204 ft | 0 kts | 225° |
| 2026-04-25 14:08 | 46.11583 | -64.68586 | 204 ft | 0 kts | 221° |
| 2026-04-25 14:11 | 46.11580 | -64.68590 | 204 ft | 1 kts | 221° |
| 2026-04-25 14:11 | 46.11559 | -64.68599 | 203 ft | 4 kts | 171° |
| 2026-04-25 14:11 | 46.11530 | -64.68572 | 204 ft | 5 kts | 155° |
| 2026-04-25 14:12 | 46.11489 | -64.68581 | 204 ft | 7 kts | 217° |
| 2026-04-25 14:12 | 46.11441 | -64.68641 | 203 ft | 10 kts | 219° |
| 2026-04-25 14:12 | 46.11378 | -64.68639 | 205 ft | 10 kts | 143° |
| 2026-04-25 14:12 | 46.11326 | -64.68563 | 206 ft | 11 kts | 133° |
| 2026-04-25 14:13 | 46.11259 | -64.68508 | 207 ft | 11 kts | 167° |
| 2026-04-25 14:13 | 46.11180 | -64.68499 | 208 ft | 11 kts | 178° |
| 2026-04-25 14:13 | 46.11100 | -64.68494 | 210 ft | 11 kts | 177° |
| 2026-04-25 14:13 | 46.11013 | -64.68488 | 212 ft | 12 kts | 177° |
| 2026-04-25 14:14 | 46.10922 | -64.68483 | 213 ft | 13 kts | 177° |
| 2026-04-25 14:14 | 46.10824 | -64.68478 | 215 ft | 14 kts | 178° |
| 2026-04-25 14:14 | 46.10715 | -64.68471 | 215 ft | 16 kts | 178° |
| 2026-04-25 14:14 | 46.10620 | -64.68375 | 215 ft | 18 kts | 133° |
| 2026-04-25 14:15 | 46.10578 | -64.68235 | 215 ft | 16 kts | 90° |
| 2026-04-25 14:15 | 46.10580 | -64.68122 | 214 ft | 18 kts | 89° |
| 2026-04-25 14:15 | 46.10588 | -64.67851 | 212 ft | 21 kts | 90° |
| 2026-04-25 14:15 | 46.10582 | -64.67626 | 210 ft | 23 kts | 87° |
| 2026-04-25 14:16 | 46.10590 | -64.67403 | 210 ft | 22 kts | 87° |
| 2026-04-25 14:16 | 46.10596 | -64.67169 | 209 ft | 24 kts | 87° |
| 2026-04-25 14:16 | 46.10604 | -64.66917 | 205 ft | 26 kts | 87° |
| 2026-04-25 14:16 | 46.10612 | -64.66653 | 202 ft | 24 kts | 88° |
| 2026-04-25 14:17 | 46.10623 | -64.66442 | 199 ft | 16 kts | 66° |
| 2026-04-25 14:17 | 46.10717 | -64.66338 | 196 ft | 18 kts | 2° |
| 2026-04-25 14:17 | 46.10778 | -64.66444 | 198 ft | 17 kts | 266° |
| 2026-04-25 14:17 | 46.10767 | -64.66763 | 202 ft | 62 kts | 268° |
| 2026-04-25 14:18 | 46.10737 | -64.67695 | 209 ft | 124 kts | 267° |
| 2026-04-25 14:18 | 46.10691 | -64.69218 | 228 ft | 174 kts | 268° |
| 2026-04-25 14:18 | 46.10623 | -64.70989 | 730 ft | 178 kts | 270° |
| 2026-04-25 14:18 | 46.10703 | -64.72736 | 1382 ft | 176 kts | 290° |
| 2026-04-25 14:19 | 46.11262 | -64.74250 | 2037 ft | 170 kts | 312° |
| 2026-04-25 14:19 | 46.12143 | -64.75411 | 2370 ft | 177 kts | 330° |
| 2026-04-25 14:19 | 46.13302 | -64.76119 | 2640 ft | 189 kts | 348° |
| 2026-04-25 14:19 | 46.14668 | -64.76203 | 2851 ft | 208 kts | 8° |
| 2026-04-25 14:20 | 46.16056 | -64.75452 | 3197 ft | 225 kts | 31° |
| 2026-04-25 14:20 | 46.16852 | -64.74450 | 3583 ft | 231 kts | 46° |
| 2026-04-25 14:20 | 46.17709 | -64.71545 | 4385 ft | 252 kts | 80° |
| 2026-04-25 14:20 | 46.17440 | -64.68970 | 4844 ft | 268 kts | 102° |
| 2026-04-25 14:21 | 46.16891 | -64.66426 | 4983 ft | 266 kts | 96° |
| 2026-04-25 14:21 | 46.16607 | -64.63814 | 4981 ft | 259 kts | 83° |
| 2026-04-25 14:21 | 46.17037 | -64.61438 | 4965 ft | 241 kts | 48° |
| 2026-04-25 14:21 | 46.18212 | -64.59782 | 5000 ft | 237 kts | 34° |
| 2026-04-25 14:22 | 46.19533 | -64.58298 | 5346 ft | 244 kts | 34° |
| 2026-04-25 14:22 | 46.20850 | -64.56798 | 6132 ft | 241 kts | 35° |
| 2026-04-25 14:22 | 46.22136 | -64.55275 | 6786 ft | 243 kts | 36° |
| 2026-04-25 14:22 | 46.23450 | -64.53709 | 7399 ft | 246 kts | 36° |
| 2026-04-25 14:23 | 46.24762 | -64.52146 | 8005 ft | 249 kts | 35° |
| 2026-04-25 14:23 | 46.26097 | -64.50556 | 8601 ft | 252 kts | 35° |
| 2026-04-25 14:23 | 46.27451 | -64.48944 | 9199 ft | 255 kts | 35° |
| 2026-04-25 14:23 | 46.28822 | -64.47311 | 9776 ft | 257 kts | 35° |
| 2026-04-25 14:24 | 46.30209 | -64.45658 | 10302 ft | 261 kts | 35° |
| 2026-04-25 14:24 | 46.31634 | -64.43963 | 10565 ft | 275 kts | 36° |
| 2026-04-25 14:24 | 46.33164 | -64.42140 | 10829 ft | 289 kts | 36° |
| 2026-04-25 14:24 | 46.34745 | -64.40250 | 11056 ft | 302 kts | 36° |
| 2026-04-25 14:25 | 46.36373 | -64.38299 | 11291 ft | 314 kts | 36° |
| 2026-04-25 14:25 | 46.38110 | -64.36214 | 11520 ft | 327 kts | 36° |
| 2026-04-25 14:25 | 46.39888 | -64.34074 | 11738 ft | 339 kts | 37° |
| 2026-04-25 14:25 | 46.41090 | -64.32622 | 11875 ft | 347 kts | 37° |
| 2026-04-25 14:26 | 46.43625 | -64.29557 | 12201 ft | 360 kts | 37° |
| 2026-04-25 14:26 | 46.45544 | -64.27238 | 12635 ft | 363 kts | 37° |
| 2026-04-25 14:26 | 46.47479 | -64.24900 | 13104 ft | 365 kts | 37° |
| 2026-04-25 14:26 | 46.49453 | -64.22517 | 13546 ft | 368 kts | 37° |
| 2026-04-25 14:27 | 46.51401 | -64.20169 | 13967 ft | 371 kts | 37° |
| 2026-04-25 14:27 | 46.53410 | -64.17747 | 14391 ft | 373 kts | 37° |
| 2026-04-25 14:27 | 46.55412 | -64.15331 | 14800 ft | 376 kts | 37° |
| 2026-04-25 14:27 | 46.57408 | -64.12922 | 15195 ft | 378 kts | 37° |
| 2026-04-25 14:28 | 46.59440 | -64.10467 | 15588 ft | 381 kts | 37° |
| 2026-04-25 14:28 | 46.61475 | -64.08007 | 15965 ft | 383 kts | 37° |
| 2026-04-25 14:28 | 46.63544 | -64.05502 | 16338 ft | 386 kts | 37° |
| 2026-04-25 14:28 | 46.65587 | -64.03028 | 16696 ft | 388 kts | 37° |
| 2026-04-25 14:29 | 46.67677 | -64.00494 | 17051 ft | 391 kts | 37° |
| 2026-04-25 14:29 | 46.69776 | -63.97946 | 17396 ft | 393 kts | 37° |
| 2026-04-25 14:29 | 46.71872 | -63.95399 | 17730 ft | 395 kts | 37° |
| 2026-04-25 14:29 | 46.73988 | -63.92825 | 18057 ft | 397 kts | 37° |
| 2026-04-25 14:30 | 46.76088 | -63.90268 | 18372 ft | 400 kts | 37° |
| 2026-04-25 14:30 | 46.80376 | -63.85038 | 18985 ft | 404 kts | 37° |
| 2026-04-25 14:30 | 46.82528 | -63.82409 | 19278 ft | 406 kts | 37° |
| 2026-04-25 14:31 | 46.84698 | -63.79756 | 19567 ft | 408 kts | 37° |
| 2026-04-25 14:31 | 46.86886 | -63.77078 | 19850 ft | 410 kts | 37° |
| 2026-04-25 14:31 | 46.89064 | -63.74409 | 20124 ft | 412 kts | 37° |
| 2026-04-25 14:31 | 46.91236 | -63.71744 | 20390 ft | 414 kts | 37° |
| 2026-04-25 14:32 | 46.93446 | -63.69029 | 20655 ft | 415 kts | 37° |
| 2026-04-25 14:32 | 46.95669 | -63.66296 | 20914 ft | 417 kts | 37° |
| 2026-04-25 14:32 | 46.97891 | -63.63560 | 21162 ft | 419 kts | 37° |
| 2026-04-25 14:32 | 47.00103 | -63.60835 | 21404 ft | 421 kts | 37° |
| 2026-04-25 14:33 | 47.02364 | -63.58046 | 21646 ft | 423 kts | 37° |
| 2026-04-25 14:33 | 47.04616 | -63.55265 | 21880 ft | 424 kts | 37° |
| 2026-04-25 14:33 | 47.06865 | -63.52483 | 22107 ft | 426 kts | 37° |
| 2026-04-25 14:33 | 47.09119 | -63.49693 | 22328 ft | 428 kts | 37° |
| 2026-04-25 14:34 | 47.11399 | -63.46872 | 22551 ft | 429 kts | 37° |
| 2026-04-25 14:34 | 47.13687 | -63.44054 | 22774 ft | 431 kts | 37° |
| 2026-04-25 14:34 | 47.15989 | -63.41215 | 22989 ft | 432 kts | 37° |
| 2026-04-25 14:34 | 47.18278 | -63.38382 | 23198 ft | 434 kts | 37° |
| 2026-04-25 14:35 | 47.20583 | -63.35522 | 23403 ft | 436 kts | 37° |
| 2026-04-25 14:35 | 47.22913 | -63.32617 | 23601 ft | 437 kts | 38° |
| 2026-04-25 14:35 | 47.25215 | -63.29731 | 23790 ft | 439 kts | 38° |
| 2026-04-25 14:35 | 47.27529 | -63.26828 | 24017 ft | 439 kts | 38° |
| 2026-04-25 14:36 | 47.29848 | -63.23918 | 24297 ft | 439 kts | 38° |
| 2026-04-25 14:36 | 47.32178 | -63.20995 | 24575 ft | 438 kts | 38° |
| 2026-04-25 14:36 | 47.34481 | -63.18105 | 24832 ft | 438 kts | 38° |
| 2026-04-25 14:36 | 47.36792 | -63.15203 | 25085 ft | 437 kts | 38° |
| 2026-04-25 14:37 | 47.39103 | -63.12300 | 25336 ft | 437 kts | 38° |
| 2026-04-25 14:37 | 47.41445 | -63.09352 | 25592 ft | 437 kts | 38° |
| 2026-04-25 14:37 | 47.43734 | -63.06471 | 25839 ft | 437 kts | 38° |
| 2026-04-25 14:37 | 47.46066 | -63.03532 | 26089 ft | 436 kts | 38° |
| 2026-04-25 14:38 | 47.48360 | -63.00635 | 26332 ft | 436 kts | 38° |
| 2026-04-25 14:38 | 47.50650 | -62.97742 | 26571 ft | 436 kts | 38° |
| 2026-04-25 14:38 | 47.52963 | -62.94817 | 26809 ft | 435 kts | 38° |
| 2026-04-25 14:38 | 47.55251 | -62.91918 | 27043 ft | 435 kts | 38° |
| 2026-04-25 14:39 | 47.57521 | -62.89040 | 27273 ft | 435 kts | 38° |
| 2026-04-25 14:39 | 47.59836 | -62.86100 | 27508 ft | 435 kts | 38° |
| 2026-04-25 14:39 | 47.62127 | -62.83189 | 27741 ft | 435 kts | 38° |
| 2026-04-25 14:39 | 47.64396 | -62.80300 | 27973 ft | 434 kts | 38° |
| 2026-04-25 14:40 | 47.66687 | -62.77381 | 28207 ft | 434 kts | 38° |
| 2026-04-25 14:40 | 47.68963 | -62.74477 | 28439 ft | 434 kts | 38° |
| 2026-04-25 14:40 | 47.71248 | -62.71558 | 28671 ft | 433 kts | 38° |
| 2026-04-25 14:40 | 47.73520 | -62.68653 | 28897 ft | 433 kts | 37° |
| 2026-04-25 14:41 | 47.78078 | -62.62814 | 28978 ft | 433 kts | 38° |
| 2026-04-25 14:41 | 47.82629 | -62.56967 | 28984 ft | 433 kts | 38° |
| 2026-04-25 14:42 | 47.86412 | -62.52096 | 28985 ft | 433 kts | 38° |
| 2026-04-25 14:42 | 47.91750 | -62.45207 | 28986 ft | 439 kts | 38° |
| 2026-04-25 14:43 | 47.96390 | -62.39200 | 28985 ft | 445 kts | 38° |
| 2026-04-25 14:43 | 48.01033 | -62.33165 | 28985 ft | 445 kts | 38° |
| 2026-04-25 14:44 | 48.05705 | -62.27053 | 28986 ft | 445 kts | 38° |
| 2026-04-25 14:44 | 48.10360 | -62.20964 | 28986 ft | 445 kts | 38° |
| 2026-04-25 14:45 | 48.15011 | -62.14909 | 28986 ft | 445 kts | 38° |
| 2026-04-25 14:45 | 48.19679 | -62.08815 | 28985 ft | 445 kts | 38° |
| 2026-04-25 14:46 | 48.24320 | -62.02727 | 28985 ft | 445 kts | 38° |
| 2026-04-25 14:46 | 48.28957 | -61.96623 | 28985 ft | 445 kts | 38° |
| 2026-04-25 14:47 | 48.32825 | -61.91517 | 28985 ft | 445 kts | 38° |
| 2026-04-25 14:47 | 48.38251 | -61.84337 | 28986 ft | 446 kts | 38° |
| 2026-04-25 14:48 | 48.42887 | -61.78183 | 28986 ft | 446 kts | 38° |
| 2026-04-25 14:48 | 48.47507 | -61.72036 | 28985 ft | 446 kts | 38° |
| 2026-04-25 14:49 | 48.52136 | -61.65862 | 28985 ft | 446 kts | 38° |
| 2026-04-25 14:49 | 48.56788 | -61.59641 | 28985 ft | 446 kts | 38° |
| 2026-04-25 14:50 | 48.61385 | -61.53478 | 28985 ft | 446 kts | 38° |
| 2026-04-25 14:50 | 48.66012 | -61.47258 | 28985 ft | 446 kts | 38° |
| 2026-04-25 14:51 | 48.70628 | -61.41038 | 28985 ft | 446 kts | 38° |
| 2026-04-25 14:51 | 48.75252 | -61.34790 | 28985 ft | 446 kts | 39° |
| 2026-04-25 14:52 | 48.79842 | -61.28545 | 28985 ft | 446 kts | 39° |
| 2026-04-25 14:52 | 48.83681 | -61.23314 | 28986 ft | 446 kts | 39° |
| 2026-04-25 14:53 | 48.89063 | -61.15976 | 28986 ft | 446 kts | 39° |
| 2026-04-25 14:53 | 48.93660 | -61.09698 | 28986 ft | 446 kts | 39° |
| 2026-04-25 14:54 | 48.96739 | -61.05485 | 28986 ft | 446 kts | 39° |